sensor_id;sensor_type;location;lat;lon;timestamp;temperature;humidity
43338;DHT22;28933;52.492;13.434;2022-11-15T00:02:11;8.10;99.90
43338;DHT22;28933;52.492;13.434;2022-11-15T00:04:37;8.00;99.90
43338;DHT22;28933;52.492;13.434;2022-11-15T00:07:02;8.00;99.90
43338;DHT22;28933;52.492;13.434;2022-11-15T00:09:28;8.00;99.90
43338;DHT22;28933;52.492;13.434;2022-11-15T00:11:54;8.00;99.90
43338;DHT22;28933;52.492;13.434;2022-11-15T00:14:19;7.90;99.90
43338;DHT22;28933;52.492;13.434;2022-11-15T00:16:45;7.90;99.90
43338;DHT22;28933;52.492;13.434;2022-11-15T00:19:11;7.90;99.90
43338;DHT22;28933;52.492;13.434;2022-11-15T00:21:37;7.90;99.90
43338;DHT22;28933;52.492;13.434;2022-11-15T00:24:02;7.90;99.90
43338;DHT22;28933;52.492;13.434;2022-11-15T00:26:28;7.80;99.90
43338;DHT22;28933;52.492;13.434;2022-11-15T00:28:54;7.90;99.90
43338;DHT22;28933;52.492;13.434;2022-11-15T00:31:22;7.80;99.90
43338;DHT22;28933;52.492;13.434;2022-11-15T00:33:49;7.80;99.90
43338;DHT22;28933;52.492;13.434;2022-11-15T00:36:15;7.80;99.90
43338;DHT22;28933;52.492;13.434;2022-11-15T00:38:41;7.80;99.90
43338;DHT22;28933;52.492;13.434;2022-11-15T00:41:07;7.80;99.90
43338;DHT22;28933;52.492;13.434;2022-11-15T00:43:33;7.70;99.90
43338;DHT22;28933;52.492;13.434;2022-11-15T00:46:00;7.70;99.90
43338;DHT22;28933;52.492;13.434;2022-11-15T00:48:25;7.70;99.90
43338;DHT22;28933;52.492;13.434;2022-11-15T00:50:51;7.70;99.90
43338;DHT22;28933;52.492;13.434;2022-11-15T00:53:17;7.70;99.90
43338;DHT22;28933;52.492;13.434;2022-11-15T00:55:43;7.70;99.90
43338;DHT22;28933;52.492;13.434;2022-11-15T00:58:09;7.70;99.90
43338;DHT22;28933;52.492;13.434;2022-11-15T01:00:35;7.60;99.90
43338;DHT22;28933;52.492;13.434;2022-11-15T01:03:01;7.60;99.90
43338;DHT22;28933;52.492;13.434;2022-11-15T01:05:27;7.70;99.90
43338;DHT22;28933;52.492;13.434;2022-11-15T01:07:54;7.70;99.90
43338;DHT22;28933;52.492;13.434;2022-11-15T01:10:20;7.60;99.90
43338;DHT22;28933;52.492;13.434;2022-11-15T01:12:47;7.60;99.90
43338;DHT22;28933;52.492;13.434;2022-11-15T01:15:12;7.60;99.90
43338;DHT22;28933;52.492;13.434;2022-11-15T01:17:38;7.60;99.90
43338;DHT22;28933;52.492;13.434;2022-11-15T01:20:04;7.60;99.90
43338;DHT22;28933;52.492;13.434;2022-11-15T01:22:30;7.60;99.90
43338;DHT22;28933;52.492;13.434;2022-11-15T01:24:56;7.60;99.90
43338;DHT22;28933;52.492;13.434;2022-11-15T01:27:22;7.50;99.90
43338;DHT22;28933;52.492;13.434;2022-11-15T01:29:48;7.60;99.90
43338;DHT22;28933;52.492;13.434;2022-11-15T01:32:13;7.60;99.90
43338;DHT22;28933;52.492;13.434;2022-11-15T01:34:39;7.50;99.90
43338;DHT22;28933;52.492;13.434;2022-11-15T01:37:05;7.50;99.90
43338;DHT22;28933;52.492;13.434;2022-11-15T01:39:30;7.50;99.90
43338;DHT22;28933;52.492;13.434;2022-11-15T01:41:56;7.50;99.90
43338;DHT22;28933;52.492;13.434;2022-11-15T01:46:56;7.50;99.90
43338;DHT22;28933;52.492;13.434;2022-11-15T01:49:23;7.50;99.90
43338;DHT22;28933;52.492;13.434;2022-11-15T01:51:50;7.50;99.90
43338;DHT22;28933;52.492;13.434;2022-11-15T01:54:19;7.50;99.90
43338;DHT22;28933;52.492;13.434;2022-11-15T01:56:57;7.50;99.90
43338;DHT22;28933;52.492;13.434;2022-11-15T01:59:26;7.50;99.90
43338;DHT22;28933;52.492;13.434;2022-11-15T02:01:58;7.50;99.90
43338;DHT22;28933;52.492;13.434;2022-11-15T02:04:26;7.40;99.90
43338;DHT22;28933;52.492;13.434;2022-11-15T02:06:54;7.40;99.90
43338;DHT22;28933;52.492;13.434;2022-11-15T02:09:21;7.40;99.90
43338;DHT22;28933;52.492;13.434;2022-11-15T02:11:47;7.40;99.90
43338;DHT22;28933;52.492;13.434;2022-11-15T02:14:16;7.40;99.90
43338;DHT22;28933;52.492;13.434;2022-11-15T02:22:30;7.30;99.90
43338;DHT22;28933;52.492;13.434;2022-11-15T02:30:47;7.30;99.90
43338;DHT22;28933;52.492;13.434;2022-11-15T02:36:18;7.30;99.90
43338;DHT22;28933;52.492;13.434;2022-11-15T02:39:16;7.30;99.90
43338;DHT22;28933;52.492;13.434;2022-11-15T02:42:14;7.30;99.90
43338;DHT22;28933;52.492;13.434;2022-11-15T02:45:03;7.30;99.90
43338;DHT22;28933;52.492;13.434;2022-11-15T02:47:34;7.20;99.90
43338;DHT22;28933;52.492;13.434;2022-11-15T02:50:09;7.30;99.90
43338;DHT22;28933;52.492;13.434;2022-11-15T02:52:35;7.30;99.90
43338;DHT22;28933;52.492;13.434;2022-11-15T02:55:01;7.30;99.90
43338;DHT22;28933;52.492;13.434;2022-11-15T03:00:09;7.30;99.90
43338;DHT22;28933;52.492;13.434;2022-11-15T03:06:20;7.30;99.90
43338;DHT22;28933;52.492;13.434;2022-11-15T03:11:52;7.30;99.90
43338;DHT22;28933;52.492;13.434;2022-11-15T03:14:25;7.30;99.90
43338;DHT22;28933;52.492;13.434;2022-11-15T03:17:16;7.30;99.90
43338;DHT22;28933;52.492;13.434;2022-11-15T03:19:49;7.30;99.90
43338;DHT22;28933;52.492;13.434;2022-11-15T03:22:18;7.20;99.90
43338;DHT22;28933;52.492;13.434;2022-11-15T03:24:47;7.20;99.90
43338;DHT22;28933;52.492;13.434;2022-11-15T03:27:17;7.20;99.90
43338;DHT22;28933;52.492;13.434;2022-11-15T03:29:53;7.20;99.90
43338;DHT22;28933;52.492;13.434;2022-11-15T03:32:25;7.20;99.90
43338;DHT22;28933;52.492;13.434;2022-11-15T03:35:05;7.20;99.90
43338;DHT22;28933;52.492;13.434;2022-11-15T03:40:37;7.20;99.90
43338;DHT22;28933;52.492;13.434;2022-11-15T03:46:16;7.20;99.90
43338;DHT22;28933;52.492;13.434;2022-11-15T03:48:49;7.20;99.90
43338;DHT22;28933;52.492;13.434;2022-11-15T03:51:16;7.20;99.90
43338;DHT22;28933;52.492;13.434;2022-11-15T03:53:43;7.10;99.90
43338;DHT22;28933;52.492;13.434;2022-11-15T03:56:09;7.20;99.90
43338;DHT22;28933;52.492;13.434;2022-11-15T03:58:34;7.30;99.90
43338;DHT22;28933;52.492;13.434;2022-11-15T04:01:00;7.20;99.90
43338;DHT22;28933;52.492;13.434;2022-11-15T04:03:26;7.20;99.90
43338;DHT22;28933;52.492;13.434;2022-11-15T04:05:51;7.20;99.90
43338;DHT22;28933;52.492;13.434;2022-11-15T04:08:17;7.20;99.90
43338;DHT22;28933;52.492;13.434;2022-11-15T04:10:43;7.20;99.90
43338;DHT22;28933;52.492;13.434;2022-11-15T04:13:08;7.20;99.90
43338;DHT22;28933;52.492;13.434;2022-11-15T04:15:35;7.20;99.90
43338;DHT22;28933;52.492;13.434;2022-11-15T04:18:03;7.20;99.90
43338;DHT22;28933;52.492;13.434;2022-11-15T04:20:30;7.20;99.90
43338;DHT22;28933;52.492;13.434;2022-11-15T04:23:16;7.20;99.90
43338;DHT22;28933;52.492;13.434;2022-11-15T04:26:11;7.20;99.90
43338;DHT22;28933;52.492;13.434;2022-11-15T04:28:38;7.20;99.90
43338;DHT22;28933;52.492;13.434;2022-11-15T04:31:23;7.20;99.90
43338;DHT22;28933;52.492;13.434;2022-11-15T04:33:48;7.20;99.90
43338;DHT22;28933;52.492;13.434;2022-11-15T04:36:15;7.20;99.90
43338;DHT22;28933;52.492;13.434;2022-11-15T04:39:00;7.20;99.90
43338;DHT22;28933;52.492;13.434;2022-11-15T04:41:27;7.10;99.90
43338;DHT22;28933;52.492;13.434;2022-11-15T04:43:54;7.10;99.90
43338;DHT22;28933;52.492;13.434;2022-11-15T04:46:20;7.10;99.90
43338;DHT22;28933;52.492;13.434;2022-11-15T04:48:46;7.10;99.90
43338;DHT22;28933;52.492;13.434;2022-11-15T04:51:12;7.10;99.90
43338;DHT22;28933;52.492;13.434;2022-11-15T04:53:37;7.10;99.90
43338;DHT22;28933;52.492;13.434;2022-11-15T04:56:03;7.10;99.90
43338;DHT22;28933;52.492;13.434;2022-11-15T04:58:29;7.10;99.90
43338;DHT22;28933;52.492;13.434;2022-11-15T05:00:55;7.10;99.90
43338;DHT22;28933;52.492;13.434;2022-11-15T05:03:20;7.10;99.90
43338;DHT22;28933;52.492;13.434;2022-11-15T05:06:05;7.10;99.90
43338;DHT22;28933;52.492;13.434;2022-11-15T05:08:32;7.10;99.90
43338;DHT22;28933;52.492;13.434;2022-11-15T05:10:58;7.10;99.90
43338;DHT22;28933;52.492;13.434;2022-11-15T05:13:23;7.10;99.90
43338;DHT22;28933;52.492;13.434;2022-11-15T05:15:49;7.10;99.90
43338;DHT22;28933;52.492;13.434;2022-11-15T05:18:14;7.00;99.90
43338;DHT22;28933;52.492;13.434;2022-11-15T05:20:40;7.10;99.90
43338;DHT22;28933;52.492;13.434;2022-11-15T05:23:06;7.10;99.90
43338;DHT22;28933;52.492;13.434;2022-11-15T05:25:31;7.10;99.90
43338;DHT22;28933;52.492;13.434;2022-11-15T05:27:57;7.10;99.90
43338;DHT22;28933;52.492;13.434;2022-11-15T05:30:25;7.10;99.90
43338;DHT22;28933;52.492;13.434;2022-11-15T05:32:50;7.10;99.90
43338;DHT22;28933;52.492;13.434;2022-11-15T05:35:45;7.20;99.90
43338;DHT22;28933;52.492;13.434;2022-11-15T05:38:07;7.10;99.90
43338;DHT22;28933;52.492;13.434;2022-11-15T05:40:34;7.10;99.90
43338;DHT22;28933;52.492;13.434;2022-11-15T05:43:01;7.10;99.90
43338;DHT22;28933;52.492;13.434;2022-11-15T05:45:29;7.10;99.90
43338;DHT22;28933;52.492;13.434;2022-11-15T05:47:55;7.10;99.90
43338;DHT22;28933;52.492;13.434;2022-11-15T05:50:23;7.10;99.90
43338;DHT22;28933;52.492;13.434;2022-11-15T05:52:48;7.10;99.90
43338;DHT22;28933;52.492;13.434;2022-11-15T05:55:15;7.20;99.90
43338;DHT22;28933;52.492;13.434;2022-11-15T05:57:40;7.10;99.90
43338;DHT22;28933;52.492;13.434;2022-11-15T06:00:07;7.10;99.90
43338;DHT22;28933;52.492;13.434;2022-11-15T06:02:33;7.10;99.90
43338;DHT22;28933;52.492;13.434;2022-11-15T06:04:59;7.10;99.90
43338;DHT22;28933;52.492;13.434;2022-11-15T06:07:25;7.10;99.90
43338;DHT22;28933;52.492;13.434;2022-11-15T06:09:50;7.10;99.90
43338;DHT22;28933;52.492;13.434;2022-11-15T06:12:16;7.10;99.90
43338;DHT22;28933;52.492;13.434;2022-11-15T06:14:43;7.10;99.90
43338;DHT22;28933;52.492;13.434;2022-11-15T06:17:08;7.10;99.90
43338;DHT22;28933;52.492;13.434;2022-11-15T06:19:34;7.10;99.90
43338;DHT22;28933;52.492;13.434;2022-11-15T06:21:59;7.10;99.90
43338;DHT22;28933;52.492;13.434;2022-11-15T06:24:25;7.10;99.90
43338;DHT22;28933;52.492;13.434;2022-11-15T06:26:51;7.10;99.90
43338;DHT22;28933;52.492;13.434;2022-11-15T06:29:17;7.10;99.90
43338;DHT22;28933;52.492;13.434;2022-11-15T06:31:43;7.10;99.90
43338;DHT22;28933;52.492;13.434;2022-11-15T06:34:09;7.10;99.90
43338;DHT22;28933;52.492;13.434;2022-11-15T06:36:35;7.10;99.90
43338;DHT22;28933;52.492;13.434;2022-11-15T06:39:05;7.10;99.90
43338;DHT22;28933;52.492;13.434;2022-11-15T06:41:34;7.10;99.90
43338;DHT22;28933;52.492;13.434;2022-11-15T06:44:00;7.10;99.90
43338;DHT22;28933;52.492;13.434;2022-11-15T06:46:26;7.00;99.90
43338;DHT22;28933;52.492;13.434;2022-11-15T06:48:52;7.10;99.90
43338;DHT22;28933;52.492;13.434;2022-11-15T06:51:18;7.10;99.90
43338;DHT22;28933;52.492;13.434;2022-11-15T06:53:45;7.00;99.90
43338;DHT22;28933;52.492;13.434;2022-11-15T06:56:11;7.10;99.90
43338;DHT22;28933;52.492;13.434;2022-11-15T06:58:37;7.00;99.90
43338;DHT22;28933;52.492;13.434;2022-11-15T07:01:05;7.10;99.90
43338;DHT22;28933;52.492;13.434;2022-11-15T07:03:33;7.10;99.90
43338;DHT22;28933;52.492;13.434;2022-11-15T07:05:59;7.10;99.90
43338;DHT22;28933;52.492;13.434;2022-11-15T07:08:27;7.10;99.90
43338;DHT22;28933;52.492;13.434;2022-11-15T07:10:58;7.10;99.90
43338;DHT22;28933;52.492;13.434;2022-11-15T07:13:26;7.20;99.90
43338;DHT22;28933;52.492;13.434;2022-11-15T07:15:51;7.20;99.90
43338;DHT22;28933;52.492;13.434;2022-11-15T07:18:17;7.20;99.90
43338;DHT22;28933;52.492;13.434;2022-11-15T07:20:43;7.20;99.90
43338;DHT22;28933;52.492;13.434;2022-11-15T07:23:08;7.20;99.90
43338;DHT22;28933;52.492;13.434;2022-11-15T07:25:34;7.30;99.90
43338;DHT22;28933;52.492;13.434;2022-11-15T07:28:01;7.30;99.90
43338;DHT22;28933;52.492;13.434;2022-11-15T07:30:28;7.30;99.90
43338;DHT22;28933;52.492;13.434;2022-11-15T07:33:00;7.40;99.90
43338;DHT22;28933;52.492;13.434;2022-11-15T07:35:32;7.40;99.90
43338;DHT22;28933;52.492;13.434;2022-11-15T07:37:59;7.50;99.90
43338;DHT22;28933;52.492;13.434;2022-11-15T07:40:27;7.50;99.90
43338;DHT22;28933;52.492;13.434;2022-11-15T07:42:59;7.50;99.90
43338;DHT22;28933;52.492;13.434;2022-11-15T07:45:25;7.60;99.90
43338;DHT22;28933;52.492;13.434;2022-11-15T07:48:14;7.50;99.90
43338;DHT22;28933;52.492;13.434;2022-11-15T07:50:59;7.60;99.90
43338;DHT22;28933;52.492;13.434;2022-11-15T07:53:45;7.70;99.90
43338;DHT22;28933;52.492;13.434;2022-11-15T07:56:31;7.70;99.90
43338;DHT22;28933;52.492;13.434;2022-11-15T07:59:17;7.70;99.90
43338;DHT22;28933;52.492;13.434;2022-11-15T08:02:05;7.80;99.90
43338;DHT22;28933;52.492;13.434;2022-11-15T08:04:51;7.80;99.90
43338;DHT22;28933;52.492;13.434;2022-11-15T08:07:35;7.90;99.90
43338;DHT22;28933;52.492;13.434;2022-11-15T08:10:05;7.90;99.90
43338;DHT22;28933;52.492;13.434;2022-11-15T08:12:32;8.00;99.90
43338;DHT22;28933;52.492;13.434;2022-11-15T08:14:58;8.00;99.90
43338;DHT22;28933;52.492;13.434;2022-11-15T08:17:24;8.10;99.90
43338;DHT22;28933;52.492;13.434;2022-11-15T08:19:50;8.00;99.90
43338;DHT22;28933;52.492;13.434;2022-11-15T08:22:19;8.20;99.90
43338;DHT22;28933;52.492;13.434;2022-11-15T08:24:45;8.20;99.90
43338;DHT22;28933;52.492;13.434;2022-11-15T08:27:11;8.30;99.90
43338;DHT22;28933;52.492;13.434;2022-11-15T08:29:43;8.30;99.90
43338;DHT22;28933;52.492;13.434;2022-11-15T08:32:09;8.40;99.90
43338;DHT22;28933;52.492;13.434;2022-11-15T08:34:35;8.40;99.90
43338;DHT22;28933;52.492;13.434;2022-11-15T08:37:01;8.50;99.90
43338;DHT22;28933;52.492;13.434;2022-11-15T08:39:27;8.60;99.90
43338;DHT22;28933;52.492;13.434;2022-11-15T08:41:53;8.70;99.90
43338;DHT22;28933;52.492;13.434;2022-11-15T08:44:19;8.70;99.90
43338;DHT22;28933;52.492;13.434;2022-11-15T08:46:49;8.80;99.90
43338;DHT22;28933;52.492;13.434;2022-11-15T08:49:15;8.80;99.90
43338;DHT22;28933;52.492;13.434;2022-11-15T08:51:40;8.90;99.90
43338;DHT22;28933;52.492;13.434;2022-11-15T08:54:06;8.90;99.90
43338;DHT22;28933;52.492;13.434;2022-11-15T08:56:32;9.00;99.90
43338;DHT22;28933;52.492;13.434;2022-11-15T08:58:58;9.00;99.90
43338;DHT22;28933;52.492;13.434;2022-11-15T09:01:24;9.10;99.90
43338;DHT22;28933;52.492;13.434;2022-11-15T09:03:49;9.20;99.90
43338;DHT22;28933;52.492;13.434;2022-11-15T09:06:15;9.30;99.90
43338;DHT22;28933;52.492;13.434;2022-11-15T09:08:41;9.30;99.90
43338;DHT22;28933;52.492;13.434;2022-11-15T09:11:08;9.40;99.90
43338;DHT22;28933;52.492;13.434;2022-11-15T09:13:36;9.40;99.90
43338;DHT22;28933;52.492;13.434;2022-11-15T09:16:05;9.50;99.90
43338;DHT22;28933;52.492;13.434;2022-11-15T09:18:31;9.50;99.90
43338;DHT22;28933;52.492;13.434;2022-11-15T09:20:58;9.60;99.90
43338;DHT22;28933;52.492;13.434;2022-11-15T09:23:25;9.70;99.90
43338;DHT22;28933;52.492;13.434;2022-11-15T09:25:52;9.80;99.90
43338;DHT22;28933;52.492;13.434;2022-11-15T09:28:18;9.80;99.90
43338;DHT22;28933;52.492;13.434;2022-11-15T09:30:44;9.90;99.90
43338;DHT22;28933;52.492;13.434;2022-11-15T09:33:11;9.90;99.90
43338;DHT22;28933;52.492;13.434;2022-11-15T09:35:37;10.00;99.90
43338;DHT22;28933;52.492;13.434;2022-11-15T09:38:03;10.10;99.90
43338;DHT22;28933;52.492;13.434;2022-11-15T09:40:31;10.20;99.90
43338;DHT22;28933;52.492;13.434;2022-11-15T09:43:25;10.20;99.90
43338;DHT22;28933;52.492;13.434;2022-11-15T09:46:11;10.30;99.90
43338;DHT22;28933;52.492;13.434;2022-11-15T09:56:38;10.60;99.90
43338;DHT22;28933;52.492;13.434;2022-11-15T09:59:27;10.60;99.90
43338;DHT22;28933;52.492;13.434;2022-11-15T10:02:17;10.70;99.90
43338;DHT22;28933;52.492;13.434;2022-11-15T10:04:46;10.70;99.90
43338;DHT22;28933;52.492;13.434;2022-11-15T10:10:15;10.90;99.90
43338;DHT22;28933;52.492;13.434;2022-11-15T10:12:47;10.90;99.90
43338;DHT22;28933;52.492;13.434;2022-11-15T10:15:15;11.00;99.90
43338;DHT22;28933;52.492;13.434;2022-11-15T10:18:04;11.10;99.90
43338;DHT22;28933;52.492;13.434;2022-11-15T10:20:47;11.10;99.90
43338;DHT22;28933;52.492;13.434;2022-11-15T10:23:18;11.10;99.90
43338;DHT22;28933;52.492;13.434;2022-11-15T10:25:45;11.20;99.90
43338;DHT22;28933;52.492;13.434;2022-11-15T10:28:18;11.30;99.90
43338;DHT22;28933;52.492;13.434;2022-11-15T10:30:46;11.30;99.90
43338;DHT22;28933;52.492;13.434;2022-11-15T10:33:36;11.40;99.90
43338;DHT22;28933;52.492;13.434;2022-11-15T10:41:17;11.50;99.90
43338;DHT22;28933;52.492;13.434;2022-11-15T10:43:44;11.60;99.90
43338;DHT22;28933;52.492;13.434;2022-11-15T10:46:22;11.60;99.90
43338;DHT22;28933;52.492;13.434;2022-11-15T10:48:49;11.70;99.90
43338;DHT22;28933;52.492;13.434;2022-11-15T10:51:24;11.80;99.90
43338;DHT22;28933;52.492;13.434;2022-11-15T10:53:57;11.80;99.90
43338;DHT22;28933;52.492;13.434;2022-11-15T10:56:26;11.90;99.90
43338;DHT22;28933;52.492;13.434;2022-11-15T10:58:56;11.90;99.90
43338;DHT22;28933;52.492;13.434;2022-11-15T11:01:25;12.00;99.90
43338;DHT22;28933;52.492;13.434;2022-11-15T11:04:08;12.00;99.90
43338;DHT22;28933;52.492;13.434;2022-11-15T11:06:48;12.10;99.90
43338;DHT22;28933;52.492;13.434;2022-11-15T11:09:35;12.10;99.90
43338;DHT22;28933;52.492;13.434;2022-11-15T11:12:03;12.20;99.90
43338;DHT22;28933;52.492;13.434;2022-11-15T11:14:34;12.30;99.90
43338;DHT22;28933;52.492;13.434;2022-11-15T11:17:18;12.30;99.90
43338;DHT22;28933;52.492;13.434;2022-11-15T11:34:41;12.60;99.90
43338;DHT22;28933;52.492;13.434;2022-11-15T11:37:24;12.60;99.90
43338;DHT22;28933;52.492;13.434;2022-11-15T11:40:10;12.70;99.90
43338;DHT22;28933;52.492;13.434;2022-11-15T11:48:27;12.80;99.90
43338;DHT22;28933;52.492;13.434;2022-11-15T11:51:23;12.90;99.90
43338;DHT22;28933;52.492;13.434;2022-11-15T11:54:06;12.90;99.90
43338;DHT22;28933;52.492;13.434;2022-11-15T11:56:39;13.00;99.90
43338;DHT22;28933;52.492;13.434;2022-11-15T12:02:42;13.00;99.90
43338;DHT22;28933;52.492;13.434;2022-11-15T12:11:28;13.20;99.90
43338;DHT22;28933;52.492;13.434;2022-11-15T12:14:04;13.20;99.90
43338;DHT22;28933;52.492;13.434;2022-11-15T12:16:32;13.30;99.90
43338;DHT22;28933;52.492;13.434;2022-11-15T12:19:02;13.30;99.90
43338;DHT22;28933;52.492;13.434;2022-11-15T12:24:04;13.40;99.90
43338;DHT22;28933;52.492;13.434;2022-11-15T12:26:45;13.40;99.90
43338;DHT22;28933;52.492;13.434;2022-11-15T12:29:20;13.40;99.90
43338;DHT22;28933;52.492;13.434;2022-11-15T12:31:51;13.50;99.90
43338;DHT22;28933;52.492;13.434;2022-11-15T12:36:47;13.50;99.90
43338;DHT22;28933;52.492;13.434;2022-11-15T12:39:14;13.60;99.90
43338;DHT22;28933;52.492;13.434;2022-11-15T12:47:24;13.70;99.80
43338;DHT22;28933;52.492;13.434;2022-11-15T12:49:50;13.70;99.80
43338;DHT22;28933;52.492;13.434;2022-11-15T12:52:17;13.70;99.70
43338;DHT22;28933;52.492;13.434;2022-11-15T12:54:57;13.80;99.70
43338;DHT22;28933;52.492;13.434;2022-11-15T12:57:31;13.80;99.60
43338;DHT22;28933;52.492;13.434;2022-11-15T13:02:29;13.80;99.50
43338;DHT22;28933;52.492;13.434;2022-11-15T13:17:44;14.10;99.20
43338;DHT22;28933;52.492;13.434;2022-11-15T13:22:49;14.10;99.20
43338;DHT22;28933;52.492;13.434;2022-11-15T13:28:55;14.20;99.10
43338;DHT22;28933;52.492;13.434;2022-11-15T13:31:00;14.20;99.00
43338;DHT22;28933;52.492;13.434;2022-11-15T13:33:37;14.30;99.00
43338;DHT22;28933;52.492;13.434;2022-11-15T13:36:13;14.30;98.90
43338;DHT22;28933;52.492;13.434;2022-11-15T13:38:41;14.30;98.90
43338;DHT22;28933;52.492;13.434;2022-11-15T13:41:22;14.40;98.90
43338;DHT22;28933;52.492;13.434;2022-11-15T13:43:49;14.40;98.70
43338;DHT22;28933;52.492;13.434;2022-11-15T13:46:26;14.40;98.70
43338;DHT22;28933;52.492;13.434;2022-11-15T13:48:58;14.40;98.60
43338;DHT22;28933;52.492;13.434;2022-11-15T13:51:29;14.50;98.50
43338;DHT22;28933;52.492;13.434;2022-11-15T13:57:23;14.50;98.50
43338;DHT22;28933;52.492;13.434;2022-11-15T14:02:48;14.50;98.40
43338;DHT22;28933;52.492;13.434;2022-11-15T14:05:15;14.50;98.30
43338;DHT22;28933;52.492;13.434;2022-11-15T14:07:59;14.50;98.30
43338;DHT22;28933;52.492;13.434;2022-11-15T14:10:33;14.50;98.30
43338;DHT22;28933;52.492;13.434;2022-11-15T14:12:59;14.50;98.30
43338;DHT22;28933;52.492;13.434;2022-11-15T14:15:33;14.50;98.30
43338;DHT22;28933;52.492;13.434;2022-11-15T14:17:59;14.40;98.20
43338;DHT22;28933;52.492;13.434;2022-11-15T14:20:26;14.40;98.30
43338;DHT22;28933;52.492;13.434;2022-11-15T14:23:04;14.40;98.20
43338;DHT22;28933;52.492;13.434;2022-11-15T14:25:34;14.40;98.20
43338;DHT22;28933;52.492;13.434;2022-11-15T14:30:49;14.40;98.20
43338;DHT22;28933;52.492;13.434;2022-11-15T14:33:36;14.30;98.10
43338;DHT22;28933;52.492;13.434;2022-11-15T14:36:14;14.30;98.10
43338;DHT22;28933;52.492;13.434;2022-11-15T14:38:41;14.30;98.10
43338;DHT22;28933;52.492;13.434;2022-11-15T14:41:20;14.30;98.10
43338;DHT22;28933;52.492;13.434;2022-11-15T14:43:46;14.20;98.10
43338;DHT22;28933;52.492;13.434;2022-11-15T14:46:12;14.20;98.20
43338;DHT22;28933;52.492;13.434;2022-11-15T14:48:37;14.10;98.20
43338;DHT22;28933;52.492;13.434;2022-11-15T14:51:03;14.10;98.20
43338;DHT22;28933;52.492;13.434;2022-11-15T14:53:34;14.00;98.30
43338;DHT22;28933;52.492;13.434;2022-11-15T14:55:59;14.00;98.30
43338;DHT22;28933;52.492;13.434;2022-11-15T14:58:25;13.90;98.40
43338;DHT22;28933;52.492;13.434;2022-11-15T15:00:51;13.90;98.40
43338;DHT22;28933;52.492;13.434;2022-11-15T15:03:16;13.80;98.50
43338;DHT22;28933;52.492;13.434;2022-11-15T15:05:43;13.80;98.50
43338;DHT22;28933;52.492;13.434;2022-11-15T15:08:11;13.70;98.60
43338;DHT22;28933;52.492;13.434;2022-11-15T15:10:43;13.60;98.70
43338;DHT22;28933;52.492;13.434;2022-11-15T15:13:17;13.60;98.80
43338;DHT22;28933;52.492;13.434;2022-11-15T15:15:46;13.50;98.90
43338;DHT22;28933;52.492;13.434;2022-11-15T15:18:12;13.60;99.20
43338;DHT22;28933;52.492;13.434;2022-11-15T15:20:39;13.40;98.90
43338;DHT22;28933;52.492;13.434;2022-11-15T15:23:15;13.40;99.00
43338;DHT22;28933;52.492;13.434;2022-11-15T15:25:41;13.40;99.10
43338;DHT22;28933;52.492;13.434;2022-11-15T15:28:07;13.40;99.10
43338;DHT22;28933;52.492;13.434;2022-11-15T15:30:33;13.30;99.20
43338;DHT22;28933;52.492;13.434;2022-11-15T15:32:58;13.30;99.20
43338;DHT22;28933;52.492;13.434;2022-11-15T15:35:29;13.20;99.30
43338;DHT22;28933;52.492;13.434;2022-11-15T15:37:56;13.20;99.30
43338;DHT22;28933;52.492;13.434;2022-11-15T15:40:23;13.20;99.40
43338;DHT22;28933;52.492;13.434;2022-11-15T15:42:49;13.10;99.40
43338;DHT22;28933;52.492;13.434;2022-11-15T15:45:16;13.20;99.40
43338;DHT22;28933;52.492;13.434;2022-11-15T15:47:45;13.10;99.50
43338;DHT22;28933;52.492;13.434;2022-11-15T15:50:26;13.00;99.50
43338;DHT22;28933;52.492;13.434;2022-11-15T15:52:57;13.00;99.60
43338;DHT22;28933;52.492;13.434;2022-11-15T15:55:26;13.00;99.60
43338;DHT22;28933;52.492;13.434;2022-11-15T15:57:53;12.90;99.70
43338;DHT22;28933;52.492;13.434;2022-11-15T16:00:20;12.90;99.70
43338;DHT22;28933;52.492;13.434;2022-11-15T16:02:46;12.90;99.80
43338;DHT22;28933;52.492;13.434;2022-11-15T16:05:12;12.80;99.80
43338;DHT22;28933;52.492;13.434;2022-11-15T16:07:39;12.80;99.90
43338;DHT22;28933;52.492;13.434;2022-11-15T16:10:28;12.80;99.90
43338;DHT22;28933;52.492;13.434;2022-11-15T16:12:55;12.70;99.90
43338;DHT22;28933;52.492;13.434;2022-11-15T16:15:23;12.70;99.90
43338;DHT22;28933;52.492;13.434;2022-11-15T16:17:56;12.60;99.90
43338;DHT22;28933;52.492;13.434;2022-11-15T16:20:34;12.50;99.90
43338;DHT22;28933;52.492;13.434;2022-11-15T16:23:01;12.50;99.90
43338;DHT22;28933;52.492;13.434;2022-11-15T16:25:27;12.50;99.90
43338;DHT22;28933;52.492;13.434;2022-11-15T16:27:53;12.50;99.90
43338;DHT22;28933;52.492;13.434;2022-11-15T16:30:21;12.40;99.90
43338;DHT22;28933;52.492;13.434;2022-11-15T16:32:46;12.40;99.90
43338;DHT22;28933;52.492;13.434;2022-11-15T16:35:14;12.30;99.90
43338;DHT22;28933;52.492;13.434;2022-11-15T16:37:40;12.30;99.90
43338;DHT22;28933;52.492;13.434;2022-11-15T16:40:24;12.20;99.90
43338;DHT22;28933;52.492;13.434;2022-11-15T16:42:50;12.20;99.90
43338;DHT22;28933;52.492;13.434;2022-11-15T16:45:15;12.10;99.90
43338;DHT22;28933;52.492;13.434;2022-11-15T16:47:45;12.00;99.90
43338;DHT22;28933;52.492;13.434;2022-11-15T16:52:52;12.00;99.90
43338;DHT22;28933;52.492;13.434;2022-11-15T16:55:19;11.90;99.90
43338;DHT22;28933;52.492;13.434;2022-11-15T16:57:46;11.90;99.90
43338;DHT22;28933;52.492;13.434;2022-11-15T17:00:13;11.80;99.90
43338;DHT22;28933;52.492;13.434;2022-11-15T17:02:42;11.70;99.90
43338;DHT22;28933;52.492;13.434;2022-11-15T17:05:08;11.60;99.90
43338;DHT22;28933;52.492;13.434;2022-11-15T17:07:34;11.60;99.90
43338;DHT22;28933;52.492;13.434;2022-11-15T17:10:00;11.50;99.90
43338;DHT22;28933;52.492;13.434;2022-11-15T17:12:27;11.50;99.90
43338;DHT22;28933;52.492;13.434;2022-11-15T17:14:56;11.40;99.90
43338;DHT22;28933;52.492;13.434;2022-11-15T17:17:22;11.40;99.90
43338;DHT22;28933;52.492;13.434;2022-11-15T17:19:49;11.30;99.90
43338;DHT22;28933;52.492;13.434;2022-11-15T17:22:15;11.30;99.90
43338;DHT22;28933;52.492;13.434;2022-11-15T17:24:41;11.20;99.90
43338;DHT22;28933;52.492;13.434;2022-11-15T17:27:06;11.10;99.90
43338;DHT22;28933;52.492;13.434;2022-11-15T17:29:32;11.10;99.90
43338;DHT22;28933;52.492;13.434;2022-11-15T17:31:58;11.00;99.90
43338;DHT22;28933;52.492;13.434;2022-11-15T17:34:23;11.00;99.90
43338;DHT22;28933;52.492;13.434;2022-11-15T17:36:50;10.90;99.90
43338;DHT22;28933;52.492;13.434;2022-11-15T17:39:16;10.80;99.90
43338;DHT22;28933;52.492;13.434;2022-11-15T17:41:44;10.80;99.90
43338;DHT22;28933;52.492;13.434;2022-11-15T17:44:09;10.80;99.90